createdAt,value
2018-07-14T00:00:11.101Z,15.14
2018-07-14T00:01:11.348Z,15.11
2018-07-14T00:02:11.590Z,15.06
2018-07-14T00:03:11.836Z,15.06
2018-07-14T00:04:12.077Z,15.10
2018-07-14T00:05:12.319Z,15.06
2018-07-14T00:06:12.561Z,15.09
2018-07-14T00:07:12.807Z,15.07
2018-07-14T00:08:13.049Z,15.11
2018-07-14T00:09:13.291Z,15.23
2018-07-14T00:10:13.533Z,15.21
2018-07-14T00:11:13.776Z,15.07
2018-07-14T00:12:14.021Z,15.25
2018-07-14T00:13:14.261Z,15.17
2018-07-14T00:14:14.504Z,15.17
2018-07-14T00:15:14.746Z,15.17
2018-07-14T00:16:14.990Z,15.14
2018-07-14T00:17:15.235Z,15.21
2018-07-14T00:18:15.477Z,15.16
2018-07-14T00:19:15.719Z,15.17
2018-07-14T00:20:15.965Z,15.21
2018-07-14T00:21:16.206Z,15.23
2018-07-14T00:22:16.449Z,15.11
2018-07-14T00:23:16.689Z,15.13
2018-07-14T00:24:16.940Z,15.14
2018-07-14T00:25:17.181Z,15.10
2018-07-14T00:26:17.417Z,15.21
2018-07-14T00:27:17.658Z,15.03
2018-07-14T00:28:17.901Z,15.07
2018-07-14T00:29:18.143Z,15.07
2018-07-14T00:30:18.384Z,15.09
2018-07-14T00:31:18.626Z,15.09
2018-07-14T00:32:18.868Z,15.03
2018-07-14T00:33:19.112Z,15.01
2018-07-14T00:34:19.355Z,14.89
2018-07-14T00:35:19.596Z,14.88
2018-07-14T00:36:19.842Z,14.92
2018-07-14T00:37:20.082Z,14.86
2018-07-14T00:38:20.327Z,14.89
2018-07-14T00:39:20.568Z,14.84
2018-07-14T00:40:20.810Z,14.75
2018-07-14T00:41:21.051Z,14.83
2018-07-14T00:42:21.294Z,14.77
2018-07-14T00:43:21.537Z,14.83
2018-07-14T00:44:21.780Z,14.83
2018-07-14T00:45:22.022Z,14.69
2018-07-14T00:46:22.265Z,14.72
2018-07-14T00:47:22.508Z,14.73
2018-07-14T00:48:22.753Z,14.69
2018-07-14T00:49:22.991Z,14.60
2018-07-14T00:50:23.236Z,14.65
2018-07-14T00:51:23.479Z,14.57
2018-07-14T00:52:23.722Z,14.61
2018-07-14T00:53:23.964Z,14.51
2018-07-14T00:54:24.206Z,14.60
2018-07-14T00:55:24.451Z,14.58
2018-07-14T00:56:24.695Z,14.54
2018-07-14T00:57:24.935Z,14.51
2018-07-14T00:58:25.176Z,14.55
2018-07-14T00:59:25.417Z,14.50
2018-07-14T01:00:25.659Z,14.45
2018-07-14T01:01:25.902Z,14.40
2018-07-14T01:02:26.144Z,14.37
2018-07-14T01:03:26.388Z,14.43
2018-07-14T01:04:26.632Z,14.39
2018-07-14T01:05:26.875Z,14.36
2018-07-14T01:06:27.118Z,14.28
2018-07-14T01:07:27.361Z,14.33
2018-07-14T01:08:27.602Z,14.27
2018-07-14T01:09:27.845Z,14.29
2018-07-14T01:10:28.084Z,14.37
2018-07-14T01:11:28.325Z,14.54
2018-07-14T01:12:28.570Z,14.58
2018-07-14T01:13:28.810Z,14.52
2018-07-14T01:14:29.052Z,14.47
2018-07-14T01:15:29.296Z,14.45
2018-07-14T01:16:29.537Z,14.32
2018-07-14T01:17:29.780Z,14.27
2018-07-14T01:18:30.022Z,14.27
2018-07-14T01:19:30.262Z,14.25
2018-07-14T01:20:30.503Z,14.14
2018-07-14T01:21:30.747Z,14.15
2018-07-14T01:22:30.984Z,14.20
2018-07-14T01:23:31.227Z,14.18
2018-07-14T01:24:31.471Z,14.18
2018-07-14T01:25:31.711Z,14.12
2018-07-14T01:26:31.950Z,14.15
2018-07-14T01:27:32.195Z,14.18
2018-07-14T01:28:32.436Z,14.25
2018-07-14T01:29:32.678Z,14.27
2018-07-14T01:30:32.918Z,14.21
2018-07-14T01:31:33.162Z,14.18
2018-07-14T01:32:33.400Z,14.22
2018-07-14T01:33:33.642Z,14.28
2018-07-14T01:34:33.883Z,14.25
2018-07-14T01:35:34.122Z,14.28
2018-07-14T01:36:34.365Z,14.25
2018-07-14T01:37:34.606Z,14.22
2018-07-14T01:38:34.847Z,14.24
2018-07-14T01:39:35.089Z,14.15
2018-07-14T01:40:35.356Z,14.18
2018-07-14T01:41:35.577Z,14.10
2018-07-14T01:42:35.813Z,14.04
2018-07-14T01:43:36.057Z,14.02
2018-07-14T01:44:36.299Z,14.04
2018-07-14T01:45:36.540Z,13.91
2018-07-14T01:46:36.782Z,13.96
2018-07-14T01:47:37.022Z,13.82
2018-07-14T01:48:37.264Z,13.88
2018-07-14T01:49:37.506Z,13.91
2018-07-14T01:50:37.748Z,13.79
2018-07-14T01:51:37.991Z,13.84
2018-07-14T01:52:38.231Z,13.77
2018-07-14T01:53:38.472Z,13.78
2018-07-14T01:54:38.711Z,13.70
2018-07-14T01:55:38.955Z,13.75
2018-07-14T01:56:39.198Z,13.66
2018-07-14T01:57:39.439Z,13.64
2018-07-14T01:58:39.678Z,13.54
2018-07-14T01:59:39.918Z,13.51
2018-07-14T02:00:40.162Z,13.59
2018-07-14T02:01:40.405Z,13.49
2018-07-14T02:02:40.647Z,13.55
2018-07-14T02:03:40.888Z,13.49
2018-07-14T02:04:41.136Z,13.51
2018-07-14T02:05:41.378Z,13.52
2018-07-14T02:06:41.617Z,13.49
2018-07-14T02:07:41.863Z,13.51
2018-07-14T02:08:42.102Z,13.62
2018-07-14T02:09:42.344Z,13.64
2018-07-14T02:10:42.584Z,13.64
2018-07-14T02:11:42.826Z,13.67
2018-07-14T02:12:43.065Z,13.69
2018-07-14T02:13:43.307Z,13.66
2018-07-14T02:14:43.549Z,13.66
2018-07-14T02:15:43.797Z,13.57
2018-07-14T02:16:44.031Z,13.52
2018-07-14T02:17:44.272Z,13.51
2018-07-14T02:18:44.514Z,13.57
2018-07-14T02:19:44.758Z,13.44
2018-07-14T02:20:44.998Z,13.39
2018-07-14T02:21:45.239Z,13.42
2018-07-14T02:22:45.480Z,13.32
2018-07-14T02:23:45.720Z,13.30
2018-07-14T02:24:45.962Z,13.26
2018-07-14T02:25:46.203Z,13.28
2018-07-14T02:26:46.445Z,13.28
2018-07-14T02:27:46.686Z,13.29
2018-07-14T02:28:46.928Z,13.32
2018-07-14T02:29:47.170Z,13.26
2018-07-14T02:30:47.411Z,13.30
2018-07-14T02:31:47.652Z,13.30
2018-07-14T02:32:47.892Z,13.30
2018-07-14T02:33:48.134Z,13.36
2018-07-14T02:34:48.376Z,13.25
2018-07-14T02:35:48.616Z,13.14
2018-07-14T02:36:48.856Z,13.05
2018-07-14T02:37:49.097Z,13.03
2018-07-14T02:38:49.340Z,13.03
2018-07-14T02:39:49.578Z,12.97
2018-07-14T02:40:49.816Z,12.95
2018-07-14T02:41:50.059Z,12.95
2018-07-14T02:42:50.303Z,12.97
2018-07-14T02:43:50.541Z,12.90
2018-07-14T02:44:50.796Z,13.00
2018-07-14T02:45:51.027Z,12.92
2018-07-14T02:46:51.264Z,13.03
2018-07-14T02:47:51.505Z,13.00
2018-07-14T02:48:51.745Z,13.07
2018-07-14T02:49:51.988Z,13.01
2018-07-14T02:50:52.227Z,12.93
2018-07-14T02:51:52.469Z,12.96
2018-07-14T02:52:52.708Z,12.95
2018-07-14T02:53:52.953Z,12.93
2018-07-14T02:54:53.189Z,12.95
2018-07-14T02:55:53.429Z,12.93
2018-07-14T02:56:53.672Z,13.00
2018-07-14T02:57:53.915Z,12.93
2018-07-14T02:58:54.155Z,12.96
2018-07-14T02:59:54.468Z,13.04
2018-07-14T03:00:54.642Z,13.04
2018-07-14T03:01:54.878Z,13.05
2018-07-14T03:02:55.117Z,13.14
2018-07-14T03:03:55.364Z,13.19
2018-07-14T03:04:55.600Z,13.29
2018-07-14T03:05:55.841Z,13.36
2018-07-14T03:06:56.082Z,13.39
2018-07-14T03:07:56.323Z,13.36
2018-07-14T03:08:56.563Z,13.33
2018-07-14T03:09:56.804Z,13.30
2018-07-14T03:10:57.044Z,13.26
2018-07-14T03:11:57.285Z,13.28
2018-07-14T03:12:57.626Z,13.23
2018-07-14T03:13:57.769Z,13.20
2018-07-14T03:14:58.010Z,13.14
2018-07-14T03:15:58.250Z,13.15
2018-07-14T03:16:58.492Z,13.14
2018-07-14T03:17:58.733Z,13.08
2018-07-14T03:18:58.974Z,13.11
2018-07-14T03:19:59.215Z,13.03
2018-07-14T03:20:59.455Z,12.93
2018-07-14T03:21:59.703Z,12.96
2018-07-14T03:22:59.938Z,12.85
2018-07-14T03:24:00.180Z,12.89
2018-07-14T03:25:00.420Z,12.93
2018-07-14T03:26:00.661Z,12.89
2018-07-14T03:27:00.902Z,12.79
2018-07-14T03:28:01.145Z,12.86
2018-07-14T03:29:01.385Z,12.78
2018-07-14T03:30:01.625Z,12.74
2018-07-14T03:31:01.867Z,12.68
2018-07-14T03:32:02.106Z,12.71
2018-07-14T03:33:02.348Z,12.77
2018-07-14T03:34:02.588Z,12.65
2018-07-14T03:35:02.828Z,12.60
2018-07-14T03:36:03.068Z,12.59
2018-07-14T03:37:03.312Z,12.64
2018-07-14T03:38:03.548Z,12.67
2018-07-14T03:39:03.791Z,12.77
2018-07-14T03:40:04.028Z,12.79
2018-07-14T03:41:04.271Z,12.82
2018-07-14T03:42:04.590Z,12.85
2018-07-14T03:43:04.750Z,12.85
2018-07-14T03:44:04.998Z,12.90
2018-07-14T03:45:05.242Z,12.85
2018-07-14T03:46:05.470Z,12.79
2018-07-14T03:47:05.710Z,12.79
2018-07-14T03:48:05.949Z,12.74
2018-07-14T03:49:06.188Z,12.70
2018-07-14T03:50:06.431Z,12.70
2018-07-14T03:51:06.674Z,12.65
2018-07-14T03:52:06.913Z,12.57
2018-07-14T03:53:07.152Z,12.62
2018-07-14T03:54:07.393Z,12.71
2018-07-14T03:55:07.634Z,12.78
2018-07-14T03:56:07.875Z,12.68
2018-07-14T03:57:08.117Z,12.74
2018-07-14T03:58:08.357Z,12.77
2018-07-14T03:59:08.596Z,12.78
2018-07-14T04:00:08.834Z,12.82
2018-07-14T04:01:09.075Z,12.89
2018-07-14T04:02:09.316Z,12.95
2018-07-14T04:03:09.554Z,12.90
2018-07-14T04:04:09.797Z,12.96
2018-07-14T04:05:10.039Z,12.97
2018-07-14T04:06:10.279Z,13.11
2018-07-14T04:07:10.519Z,13.14
2018-07-14T04:08:10.759Z,13.20
2018-07-14T04:09:11.000Z,13.33
2018-07-14T04:10:11.239Z,13.39
2018-07-14T04:11:11.482Z,13.30
2018-07-14T04:12:11.730Z,13.48
2018-07-14T04:13:11.963Z,13.52
2018-07-14T04:14:12.236Z,13.57
2018-07-14T04:15:12.442Z,13.55
2018-07-14T04:16:12.683Z,13.62
2018-07-14T04:17:12.923Z,13.64
2018-07-14T04:18:13.162Z,13.71
2018-07-14T04:19:13.404Z,13.75
2018-07-14T04:20:13.641Z,13.77
2018-07-14T04:21:13.883Z,13.79
2018-07-14T04:22:14.124Z,13.82
2018-07-14T04:23:14.366Z,13.91
2018-07-14T04:24:14.606Z,13.92
2018-07-14T04:25:14.847Z,14.02
2018-07-14T04:26:15.089Z,14.00
2018-07-14T04:27:15.331Z,13.96
2018-07-14T04:28:15.572Z,13.95
2018-07-14T04:29:15.810Z,13.91
2018-07-14T04:30:16.050Z,14.00
2018-07-14T04:31:16.295Z,13.97
2018-07-14T04:32:16.536Z,13.95
2018-07-14T04:33:16.778Z,13.99
2018-07-14T04:34:17.018Z,13.99
2018-07-14T04:35:17.259Z,14.00
2018-07-14T04:36:17.500Z,13.97
2018-07-14T04:37:17.742Z,13.82
2018-07-14T04:38:17.984Z,13.91
2018-07-14T04:39:18.225Z,13.84
2018-07-14T04:40:18.467Z,13.85
2018-07-14T04:41:18.708Z,13.99
2018-07-14T04:42:19.008Z,13.97
2018-07-14T04:43:19.194Z,13.88
2018-07-14T04:44:19.437Z,13.96
2018-07-14T04:45:19.678Z,14.00
2018-07-14T04:46:19.918Z,14.14
2018-07-14T04:47:20.160Z,14.15
2018-07-14T04:48:20.402Z,14.14
2018-07-14T04:49:20.645Z,14.22
2018-07-14T04:50:20.885Z,14.22
2018-07-14T04:51:21.127Z,14.33
2018-07-14T04:52:21.369Z,14.45
2018-07-14T04:53:21.611Z,14.43
2018-07-14T04:54:21.857Z,14.46
2018-07-14T04:55:22.096Z,14.43
2018-07-14T04:56:22.340Z,14.51
2018-07-14T04:57:22.581Z,14.54
2018-07-14T04:58:22.823Z,14.61
2018-07-14T04:59:23.066Z,14.60
2018-07-14T05:00:23.309Z,14.69
2018-07-14T05:01:23.551Z,14.70
2018-07-14T05:02:23.795Z,14.80
2018-07-14T05:03:24.036Z,14.86
2018-07-14T05:04:24.278Z,14.88
2018-07-14T05:05:24.524Z,14.96
2018-07-14T05:06:24.823Z,14.95
2018-07-14T05:07:25.010Z,15.09
2018-07-14T05:08:25.251Z,15.07
2018-07-14T05:09:25.505Z,15.06
2018-07-14T05:10:25.739Z,15.21
2018-07-14T05:11:25.976Z,15.17
2018-07-14T05:12:26.222Z,15.25
2018-07-14T05:13:26.464Z,15.27
2018-07-14T05:14:26.707Z,15.43
2018-07-14T05:15:26.953Z,15.49
2018-07-14T05:16:27.194Z,15.51
2018-07-14T05:17:27.435Z,15.50
2018-07-14T05:18:27.679Z,15.62
2018-07-14T05:19:27.920Z,15.72
2018-07-14T05:20:28.162Z,15.67
2018-07-14T05:21:28.475Z,15.69
2018-07-14T05:22:28.647Z,15.69
2018-07-14T05:23:28.892Z,15.71
2018-07-14T05:24:29.133Z,15.76
2018-07-14T05:25:29.375Z,15.89
2018-07-14T05:26:29.619Z,15.90
2018-07-14T05:27:29.863Z,15.89
2018-07-14T05:28:30.147Z,15.93
2018-07-14T05:29:30.349Z,15.96
2018-07-14T05:30:30.595Z,16.04
2018-07-14T05:31:30.838Z,15.97
2018-07-14T05:32:31.080Z,16.07
2018-07-14T05:33:31.324Z,16.08
2018-07-14T05:34:31.566Z,16.08
2018-07-14T05:35:31.809Z,16.00
2018-07-14T05:36:32.055Z,16.09
2018-07-14T05:37:32.296Z,16.02
2018-07-14T05:38:32.537Z,16.12
2018-07-14T05:39:32.782Z,16.21
2018-07-14T05:40:33.028Z,16.23
2018-07-14T05:41:33.270Z,16.21
2018-07-14T05:42:33.513Z,16.24
2018-07-14T05:43:33.759Z,16.23
2018-07-14T05:44:34.002Z,16.30
2018-07-14T05:45:34.246Z,16.43
2018-07-14T05:46:34.489Z,16.61
2018-07-14T05:47:34.733Z,16.60
2018-07-14T05:48:34.975Z,16.64
2018-07-14T05:49:35.218Z,16.71
2018-07-14T05:50:35.462Z,16.75
2018-07-14T05:51:35.707Z,16.73
2018-07-14T05:52:35.948Z,16.78
2018-07-14T05:53:36.193Z,16.89
2018-07-14T05:54:36.436Z,16.82
2018-07-14T05:55:36.683Z,16.86
2018-07-14T05:56:36.929Z,16.85
2018-07-14T05:57:37.174Z,16.93
2018-07-14T05:58:37.418Z,16.94
2018-07-14T05:59:37.663Z,17.07
2018-07-14T06:00:37.908Z,17.08
2018-07-14T06:01:38.152Z,17.18
2018-07-14T06:02:38.396Z,17.21
2018-07-14T06:03:38.639Z,17.28
2018-07-14T06:04:38.885Z,17.40
2018-07-14T06:05:39.128Z,17.43
2018-07-14T06:06:39.373Z,17.52
2018-07-14T06:07:39.647Z,17.58
2018-07-14T06:08:39.873Z,17.64
2018-07-14T06:09:40.106Z,17.77
2018-07-14T06:10:40.353Z,17.90
2018-07-14T06:11:40.595Z,17.90
2018-07-14T06:12:40.839Z,17.92
2018-07-14T06:13:41.084Z,17.97
2018-07-14T06:14:41.327Z,18.08
2018-07-14T06:15:41.571Z,18.12
2018-07-14T06:16:41.833Z,18.25
2018-07-14T06:17:42.061Z,18.30
2018-07-14T06:18:42.305Z,18.35
2018-07-14T06:19:42.549Z,18.45
2018-07-14T06:20:42.794Z,18.63
2018-07-14T06:21:43.038Z,18.66
2018-07-14T06:22:43.284Z,18.82
2018-07-14T06:23:43.527Z,18.91
2018-07-14T06:24:43.774Z,18.92
2018-07-14T06:25:44.020Z,19.06
2018-07-14T06:26:44.266Z,19.21
2018-07-14T06:27:44.510Z,19.26
2018-07-14T06:28:44.755Z,19.41
2018-07-14T06:29:45.000Z,19.55
2018-07-14T06:30:45.247Z,19.61
2018-07-14T06:31:45.491Z,19.65
2018-07-14T06:32:45.739Z,19.78
2018-07-14T06:33:45.985Z,19.84
2018-07-14T06:34:46.230Z,19.80
2018-07-14T06:35:46.476Z,19.78
2018-07-14T06:36:46.721Z,19.94
2018-07-14T06:37:46.968Z,19.94
2018-07-14T06:38:47.224Z,19.92
2018-07-14T06:39:47.461Z,20.10
2018-07-14T06:40:47.705Z,20.16
2018-07-14T06:41:47.951Z,20.29
2018-07-14T06:42:48.197Z,20.36
2018-07-14T06:43:48.445Z,20.42
2018-07-14T06:44:48.692Z,20.33
2018-07-14T06:45:48.934Z,20.41
2018-07-14T06:46:49.180Z,20.51
2018-07-14T06:47:49.424Z,20.54
2018-07-14T06:48:49.671Z,20.67
2018-07-14T06:49:49.916Z,20.69
2018-07-14T06:50:50.164Z,20.67
2018-07-14T06:51:50.407Z,20.73
2018-07-14T06:52:50.654Z,20.79
2018-07-14T06:53:50.899Z,20.87
2018-07-14T06:54:51.144Z,21.06
2018-07-14T06:55:51.390Z,20.99
2018-07-14T06:56:51.637Z,21.07
2018-07-14T06:57:51.882Z,21.16
2018-07-14T06:58:52.129Z,21.28
2018-07-14T06:59:52.374Z,21.28
2018-07-14T07:00:52.620Z,21.42
2018-07-14T07:01:52.866Z,21.64
2018-07-14T07:02:53.115Z,21.71
2018-07-14T07:03:53.362Z,21.68
2018-07-14T07:04:53.605Z,21.69
2018-07-14T07:05:53.851Z,21.71
2018-07-14T07:06:54.096Z,21.90
2018-07-14T07:07:54.341Z,22.06
2018-07-14T07:08:54.587Z,22.06
2018-07-14T07:09:54.832Z,22.18
2018-07-14T07:10:55.079Z,22.43
2018-07-14T07:11:55.327Z,22.39
2018-07-14T07:12:55.578Z,22.58
2018-07-14T07:13:55.820Z,22.94
2018-07-14T07:14:56.066Z,23.02
2018-07-14T07:15:56.312Z,22.86
2018-07-14T07:16:56.560Z,23.16
2018-07-14T07:17:56.807Z,23.58
2018-07-14T07:18:57.053Z,23.79
2018-07-14T07:19:57.303Z,24.21
2018-07-14T07:20:57.548Z,24.27
2018-07-14T07:21:57.794Z,24.40
2018-07-14T07:22:58.043Z,24.71
2018-07-14T07:23:58.290Z,24.93
2018-07-14T07:24:58.540Z,25.46
2018-07-14T07:25:58.787Z,25.73
2018-07-14T07:26:59.035Z,25.76
2018-07-14T07:27:59.283Z,25.94
2018-07-14T07:28:59.532Z,25.76
2018-07-14T07:29:59.780Z,25.92
2018-07-14T07:31:00.034Z,25.46
2018-07-14T07:32:00.278Z,25.20
2018-07-14T07:33:00.533Z,24.96
2018-07-14T07:34:00.841Z,25.08
2018-07-14T07:35:01.031Z,25.00
2018-07-14T07:36:01.277Z,25.24
2018-07-14T07:37:01.531Z,25.60
2018-07-14T07:38:01.777Z,25.67
2018-07-14T07:39:02.023Z,25.62
2018-07-14T07:40:02.272Z,25.69
2018-07-14T07:41:02.521Z,25.69
2018-07-14T07:42:02.770Z,25.61
2018-07-14T07:43:03.018Z,25.39
2018-07-14T07:44:03.268Z,25.43
2018-07-14T07:45:03.516Z,25.27
2018-07-14T07:46:03.767Z,25.46
2018-07-14T07:47:04.016Z,25.69
2018-07-14T07:48:04.266Z,25.79
2018-07-14T07:49:04.515Z,26.02
2018-07-14T07:50:04.765Z,26.35
2018-07-14T07:51:05.014Z,26.57
2018-07-14T07:52:05.264Z,27.02
2018-07-14T07:53:05.514Z,27.70
2018-07-14T07:54:05.762Z,28.54
2018-07-14T07:55:06.013Z,29.55
2018-07-14T07:56:06.262Z,30.29
2018-07-14T07:57:06.510Z,30.98
2018-07-14T07:58:06.760Z,31.14
2018-07-14T07:59:07.097Z,31.58
2018-07-14T08:00:07.261Z,31.85
2018-07-14T08:01:07.512Z,31.48
2018-07-14T08:02:07.763Z,31.29
2018-07-14T08:03:08.014Z,31.09
2018-07-14T08:04:08.266Z,30.13
2018-07-14T08:05:08.517Z,30.04
2018-07-14T08:06:08.769Z,28.71
2018-07-14T08:07:09.022Z,28.61
2018-07-14T08:08:09.277Z,28.66
2018-07-14T08:09:09.524Z,28.74
2018-07-14T08:10:09.777Z,29.12
2018-07-14T08:11:10.027Z,29.24
2018-07-14T08:12:10.279Z,29.33
2018-07-14T08:13:10.531Z,28.29
2018-07-14T08:14:10.784Z,28.18
2018-07-14T08:15:11.035Z,28.07
2018-07-14T08:16:11.353Z,29.02
2018-07-14T08:17:11.539Z,30.29
2018-07-14T08:18:11.793Z,30.94
2018-07-14T08:19:12.044Z,31.95
2018-07-14T08:20:12.295Z,32.38
2018-07-14T08:21:12.548Z,31.65
2018-07-14T08:22:12.803Z,31.72
2018-07-14T08:23:13.053Z,31.53
2018-07-14T08:24:13.305Z,31.72
2018-07-14T08:25:13.557Z,32.14
2018-07-14T08:26:13.811Z,31.88
2018-07-14T08:27:14.064Z,31.95
2018-07-14T08:28:14.317Z,30.88
2018-07-14T08:29:14.572Z,30.86
2018-07-14T08:30:14.824Z,31.85
2018-07-14T08:31:15.076Z,30.98
2018-07-14T08:32:15.346Z,31.31
2018-07-14T08:33:15.584Z,28.33
2018-07-14T08:34:15.837Z,26.48
2018-07-14T08:35:16.091Z,27.28
2018-07-14T08:36:16.349Z,27.44
2018-07-14T08:37:16.598Z,27.51
2018-07-14T08:38:16.850Z,27.69
2018-07-14T08:39:17.103Z,27.04
2018-07-14T08:40:17.359Z,26.97
2018-07-14T08:41:17.608Z,26.87
2018-07-14T08:42:17.860Z,26.88
2018-07-14T08:43:18.112Z,27.27
2018-07-14T08:44:18.366Z,27.67
2018-07-14T08:45:18.618Z,27.79
2018-07-14T08:46:18.869Z,29.30
2018-07-14T08:47:19.123Z,29.19
2018-07-14T08:48:19.373Z,28.41
2018-07-14T08:49:19.626Z,28.27
2018-07-14T08:50:19.878Z,28.58
2018-07-14T08:51:20.174Z,29.55
2018-07-14T08:52:20.387Z,30.22
2018-07-14T08:53:20.633Z,30.80
2018-07-14T08:54:20.887Z,31.23
2018-07-14T08:55:21.139Z,31.92
2018-07-14T08:56:21.392Z,32.75
2018-07-14T08:57:21.644Z,33.01
2018-07-14T08:58:21.898Z,33.18
2018-07-14T08:59:22.150Z,33.87
2018-07-14T09:00:22.404Z,34.10
2018-07-14T09:01:22.658Z,34.49
2018-07-14T09:02:22.910Z,34.13
2018-07-14T09:03:23.164Z,33.66
2018-07-14T09:04:23.418Z,32.89
2018-07-14T09:05:23.673Z,32.75
2018-07-14T09:06:23.929Z,30.01
2018-07-14T09:07:24.185Z,30.16
2018-07-14T09:08:24.438Z,31.10
2018-07-14T09:09:24.691Z,31.29
2018-07-14T09:10:24.946Z,30.97
2018-07-14T09:11:25.203Z,31.91
2018-07-14T09:12:25.454Z,31.84
2018-07-14T09:13:25.711Z,30.19
2018-07-14T09:14:25.962Z,30.49
2018-07-14T09:15:26.219Z,28.39
2018-07-14T09:16:26.582Z,28.61
2018-07-14T09:17:26.726Z,30.17
2018-07-14T09:18:26.981Z,31.43
2018-07-14T09:19:27.235Z,31.72
2018-07-14T09:20:27.487Z,31.66
2018-07-14T09:21:27.744Z,32.69
2018-07-14T09:22:27.996Z,33.23
2018-07-14T09:23:28.249Z,33.94
2018-07-14T09:24:28.503Z,33.98
2018-07-14T09:25:28.760Z,34.27
2018-07-14T09:26:29.016Z,34.42
2018-07-14T09:27:29.269Z,34.72
2018-07-14T09:28:29.523Z,35.10
2018-07-14T09:29:29.778Z,35.22
2018-07-14T09:30:30.034Z,35.47
2018-07-14T09:31:30.290Z,35.53
2018-07-14T09:32:30.553Z,36.15
2018-07-14T09:33:30.799Z,36.31
2018-07-14T09:34:31.054Z,34.40
2018-07-14T09:35:31.310Z,34.61
2018-07-14T09:36:31.564Z,34.92
2018-07-14T09:37:31.820Z,35.33
2018-07-14T09:38:32.076Z,35.41
2018-07-14T09:39:32.331Z,36.00
2018-07-14T09:40:32.587Z,36.01
2018-07-14T09:41:32.842Z,36.17
2018-07-14T09:42:33.099Z,34.97
2018-07-14T09:43:33.355Z,32.52
2018-07-14T09:44:33.654Z,31.54
2018-07-14T09:45:33.870Z,32.22
2018-07-14T09:46:34.133Z,33.32
2018-07-14T09:47:34.386Z,34.35
2018-07-14T09:48:34.641Z,31.29
2018-07-14T09:49:34.897Z,31.80
2018-07-14T09:50:35.154Z,32.79
2018-07-14T09:51:35.409Z,33.69
2018-07-14T09:52:35.667Z,34.25
2018-07-14T09:53:35.921Z,34.61
2018-07-14T09:54:36.178Z,35.10
2018-07-14T09:55:36.436Z,35.89
2018-07-14T09:56:36.690Z,36.13
2018-07-14T09:57:36.948Z,33.75
2018-07-14T09:58:37.205Z,34.13
2018-07-14T09:59:37.462Z,34.54
2018-07-14T10:00:37.720Z,34.99
2018-07-14T10:01:37.976Z,35.02
2018-07-14T10:02:38.237Z,33.37
2018-07-14T10:03:38.494Z,32.35
2018-07-14T10:04:38.751Z,33.68
2018-07-14T10:05:39.007Z,31.17
2018-07-14T10:06:39.265Z,32.47
2018-07-14T10:07:39.524Z,33.44
2018-07-14T10:08:39.776Z,33.63
2018-07-14T10:09:40.036Z,34.61
2018-07-14T10:10:40.293Z,35.36
2018-07-14T10:11:40.550Z,36.09
2018-07-14T10:12:40.807Z,36.22
2018-07-14T10:13:41.061Z,36.88
2018-07-14T10:14:41.324Z,37.67
2018-07-14T10:15:41.577Z,38.35
2018-07-14T10:16:41.833Z,38.03
2018-07-14T10:17:42.145Z,38.25
2018-07-14T10:18:42.348Z,37.27
2018-07-14T10:19:42.605Z,36.03
2018-07-14T10:20:42.864Z,36.15
2018-07-14T10:21:43.125Z,35.65
2018-07-14T10:22:43.382Z,35.90
2018-07-14T10:23:43.644Z,34.56
2018-07-14T10:24:43.897Z,32.65
2018-07-14T10:25:44.367Z,32.29
2018-07-14T10:26:44.412Z,31.80
2018-07-14T10:27:44.671Z,31.53
2018-07-14T10:28:44.928Z,30.79
2018-07-14T10:29:45.185Z,31.57
2018-07-14T10:30:45.441Z,31.92
2018-07-14T10:31:45.699Z,32.38
2018-07-14T10:32:45.956Z,32.84
2018-07-14T10:33:46.276Z,31.84
2018-07-14T10:34:46.469Z,31.29
2018-07-14T10:35:46.729Z,31.72
2018-07-14T10:36:46.981Z,32.78
2018-07-14T10:37:47.239Z,33.95
2018-07-14T10:38:47.539Z,34.46
2018-07-14T10:39:47.753Z,34.19
2018-07-14T10:40:48.009Z,35.11
2018-07-14T10:41:48.266Z,33.79
2018-07-14T10:42:48.523Z,32.32
2018-07-14T10:43:48.780Z,31.53
2018-07-14T10:44:49.036Z,31.53
2018-07-14T10:45:49.296Z,31.95
2018-07-14T10:46:49.619Z,32.38
2018-07-14T10:47:49.807Z,33.42
2018-07-14T10:48:50.063Z,31.91
2018-07-14T10:49:50.320Z,31.62
2018-07-14T10:50:50.575Z,32.15
2018-07-14T10:51:50.834Z,33.11
2018-07-14T10:52:51.090Z,33.87
2018-07-14T10:53:51.346Z,34.40
2018-07-14T10:54:51.602Z,34.16
2018-07-14T10:55:51.858Z,33.87
2018-07-14T10:56:52.113Z,31.61
2018-07-14T10:57:52.379Z,31.53
2018-07-14T10:58:52.631Z,30.99
2018-07-14T10:59:52.889Z,32.07
2018-07-14T11:00:53.143Z,33.19
2018-07-14T11:01:53.399Z,33.50
2018-07-14T11:02:53.655Z,32.97
2018-07-14T11:03:53.914Z,32.84
2018-07-14T11:04:54.170Z,32.77
2018-07-14T11:05:54.422Z,33.28
2018-07-14T11:06:54.679Z,32.82
2018-07-14T11:07:54.934Z,33.68
2018-07-14T11:08:55.193Z,34.62
2018-07-14T11:09:55.450Z,34.87
2018-07-14T11:10:55.704Z,34.82
2018-07-14T11:11:55.959Z,34.54
2018-07-14T11:12:56.215Z,35.15
2018-07-14T11:13:56.470Z,34.40
2018-07-14T11:14:56.725Z,33.11
2018-07-14T11:15:56.981Z,33.60
2018-07-14T11:16:57.241Z,34.88
2018-07-14T11:17:57.534Z,34.62
2018-07-14T11:18:57.751Z,33.29
2018-07-14T11:19:58.007Z,34.54
2018-07-14T11:20:58.264Z,35.16
2018-07-14T11:21:58.521Z,36.22
2018-07-14T11:22:58.777Z,36.95
2018-07-14T11:23:59.035Z,37.55
2018-07-14T11:24:59.291Z,37.74
2018-07-14T11:25:59.547Z,37.66
2018-07-14T11:26:59.805Z,36.31
2018-07-14T11:28:00.063Z,36.37
2018-07-14T11:29:00.319Z,36.08
2018-07-14T11:30:00.577Z,36.00
2018-07-14T11:31:00.834Z,36.38
2018-07-14T11:32:01.091Z,36.62
2018-07-14T11:33:01.349Z,36.95
2018-07-14T11:34:01.606Z,36.46
2018-07-14T11:35:01.865Z,35.21
2018-07-14T11:36:02.126Z,34.53
2018-07-14T11:37:02.383Z,34.34
2018-07-14T11:38:02.640Z,34.81
2018-07-14T11:39:02.898Z,34.22
2018-07-14T11:40:03.161Z,32.82
2018-07-14T11:41:03.414Z,32.01
2018-07-14T11:42:03.736Z,31.72
2018-07-14T11:43:03.928Z,31.29
2018-07-14T11:44:04.188Z,30.92
2018-07-14T11:45:04.443Z,30.61
2018-07-14T11:46:04.699Z,30.82
2018-07-14T11:47:04.956Z,31.01
2018-07-14T11:48:05.214Z,32.72
2018-07-14T11:49:05.468Z,34.02
2018-07-14T11:50:05.725Z,35.00
2018-07-14T11:51:05.982Z,35.60
2018-07-14T11:52:06.237Z,36.03
2018-07-14T11:53:06.494Z,35.58
2018-07-14T11:54:06.754Z,35.72
2018-07-14T11:55:07.006Z,35.85
2018-07-14T11:56:07.262Z,35.47
2018-07-14T11:57:07.518Z,36.27
2018-07-14T11:58:07.775Z,36.78
2018-07-14T11:59:08.033Z,36.59
2018-07-14T12:00:08.290Z,37.46
2018-07-14T12:01:08.548Z,37.41
2018-07-14T12:02:08.892Z,38.01
2018-07-14T12:03:09.060Z,38.12
2018-07-14T12:04:09.318Z,36.76
2018-07-14T12:05:09.575Z,35.66
2018-07-14T12:06:09.832Z,34.39
2018-07-14T12:07:10.150Z,33.82
2018-07-14T12:08:10.348Z,34.22
2018-07-14T12:09:10.609Z,35.60
2018-07-14T12:10:10.866Z,36.34
2018-07-14T12:11:11.124Z,36.53
2018-07-14T12:12:11.383Z,37.07
2018-07-14T12:13:11.638Z,37.47
2018-07-14T12:14:11.896Z,37.28
2018-07-14T12:15:12.154Z,37.24
2018-07-14T12:16:12.411Z,35.82
2018-07-14T12:17:12.671Z,34.88
2018-07-14T12:18:12.927Z,35.38
2018-07-14T12:19:13.184Z,35.14
2018-07-14T12:20:13.443Z,34.72
2018-07-14T12:21:13.705Z,35.77
2018-07-14T12:22:13.981Z,35.80
2018-07-14T12:23:14.216Z,35.62
2018-07-14T12:24:14.472Z,34.89
2018-07-14T12:25:14.729Z,34.46
2018-07-14T12:26:14.988Z,35.40
2018-07-14T12:27:15.244Z,36.15
2018-07-14T12:28:15.502Z,36.80
2018-07-14T12:29:15.758Z,37.18
2018-07-14T12:30:16.025Z,37.18
2018-07-14T12:31:16.272Z,37.46
2018-07-14T12:32:16.530Z,37.69
2018-07-14T12:33:16.787Z,36.22
2018-07-14T12:34:17.045Z,35.09
2018-07-14T12:35:17.303Z,34.58
2018-07-14T12:36:17.560Z,33.78
2018-07-14T12:37:17.820Z,34.58
2018-07-14T12:38:18.076Z,35.43
2018-07-14T12:39:18.333Z,35.43
2018-07-14T12:40:18.591Z,35.77
2018-07-14T12:41:18.848Z,35.14
2018-07-14T12:42:19.107Z,34.44
2018-07-14T12:43:19.382Z,34.15
2018-07-14T12:44:19.622Z,35.80
2018-07-14T12:45:19.877Z,36.85
2018-07-14T12:46:20.134Z,36.95
2018-07-14T12:47:20.392Z,36.56
2018-07-14T12:48:20.650Z,36.66
2018-07-14T12:49:20.905Z,35.41
2018-07-14T12:50:21.164Z,34.58
2018-07-14T12:51:21.421Z,33.65
2018-07-14T12:52:21.680Z,32.93
2018-07-14T12:53:21.934Z,32.35
2018-07-14T12:54:22.192Z,31.75
2018-07-14T12:55:22.451Z,31.46